AFZ48E EICK-EICK
Flight info
| Callsign | AFZ48E |
|---|---|
| Flight time | N/A |
| Altitude | 5000 |
| Route | DCT YOUGHAL DCT |
| Aircraft | DA42/L-DFGSY/S |
Departure
| Time | 2026-04-28 20:23 |
|---|---|
| Airport | Cork International Airport (EICK) |
Arrival
| Time | N/A |
|---|---|
| Airport | Cork International Airport (EICK) |
| Time | Latitude | Longitude | Altitude | Speed | Heading |
|---|---|---|---|---|---|
| 2026-04-28 20:19 | 51.83817 | -8.48682 | 459 ft | 0 kts | 248° |
| 2026-04-28 20:20 | 51.83811 | -8.48709 | 460 ft | 8 kts | 251° |
| 2026-04-28 20:20 | 51.83790 | -8.48802 | 463 ft | 10 kts | 250° |
| 2026-04-28 20:20 | 51.83806 | -8.48917 | 462 ft | 15 kts | 349° |
| 2026-04-28 20:21 | 51.83906 | -8.48929 | 466 ft | 15 kts | 29° |
| 2026-04-28 20:21 | 51.83985 | -8.49000 | 467 ft | 18 kts | 331° |
| 2026-04-28 20:21 | 51.84075 | -8.49056 | 470 ft | 10 kts | 346° |
| 2026-04-28 20:21 | 51.84102 | -8.49094 | 471 ft | 10 kts | 153° |
| 2026-04-28 20:22 | 51.84090 | -8.49084 | 471 ft | 1 kts | 160° |
| 2026-04-28 20:22 | 51.84050 | -8.49062 | 469 ft | 24 kts | 154° |
| 2026-04-28 20:22 | 51.83709 | -8.48859 | 463 ft | 75 kts | 158° |
| 2026-04-28 20:22 | 51.83163 | -8.48509 | 527 ft | 91 kts | 149° |
| 2026-04-28 20:23 | 51.82558 | -8.48106 | 744 ft | 96 kts | 152° |
| 2026-04-28 20:23 | 51.81873 | -8.47809 | 879 ft | 105 kts | 162° |
| 2026-04-28 20:23 | 51.81121 | -8.47574 | 1011 ft | 113 kts | 163° |
| 2026-04-28 20:23 | 51.80436 | -8.47087 | 1227 ft | 105 kts | 126° |
| 2026-04-28 20:24 | 51.80227 | -8.46060 | 1422 ft | 99 kts | 74° |
| 2026-04-28 20:24 | 51.80440 | -8.45027 | 1642 ft | 98 kts | 65° |
| 2026-04-28 20:24 | 51.80616 | -8.43926 | 1812 ft | 102 kts | 75° |
| 2026-04-28 20:24 | 51.80765 | -8.42788 | 2059 ft | 103 kts | 76° |
| 2026-04-28 20:25 | 51.80884 | -8.41664 | 2364 ft | 97 kts | 81° |
| 2026-04-28 20:25 | 51.80985 | -8.40636 | 2629 ft | 92 kts | 76° |
| 2026-04-28 20:25 | 51.81148 | -8.39625 | 2866 ft | 94 kts | 75° |
| 2026-04-28 20:25 | 51.81278 | -8.38568 | 3085 ft | 95 kts | 78° |
| 2026-04-28 20:26 | 51.81377 | -8.37503 | 3307 ft | 97 kts | 81° |
| 2026-04-28 20:26 | 51.81436 | -8.36424 | 3527 ft | 96 kts | 84° |
| 2026-04-28 20:26 | 51.81445 | -8.35328 | 3714 ft | 99 kts | 88° |
| 2026-04-28 20:26 | 51.81448 | -8.34215 | 3879 ft | 101 kts | 88° |
| 2026-04-28 20:27 | 51.81478 | -8.33106 | 4105 ft | 97 kts | 73° |
| 2026-04-28 20:27 | 51.81713 | -8.32065 | 4295 ft | 98 kts | 69° |
| 2026-04-28 20:27 | 51.81969 | -8.31045 | 4532 ft | 98 kts | 69° |
| 2026-04-28 20:27 | 51.82183 | -8.30006 | 4750 ft | 98 kts | 78° |
| 2026-04-28 20:28 | 51.82316 | -8.28922 | 4921 ft | 100 kts | 77° |
| 2026-04-28 20:28 | 51.82469 | -8.27749 | 4905 ft | 113 kts | 77° |
| 2026-04-28 20:28 | 51.82612 | -8.26551 | 4958 ft | 107 kts | 76° |
| 2026-04-28 20:28 | 51.82744 | -8.25365 | 4921 ft | 106 kts | 79° |
| 2026-04-28 20:29 | 51.82870 | -8.24188 | 4929 ft | 106 kts | 79° |
| 2026-04-28 20:29 | 51.83012 | -8.23019 | 4918 ft | 105 kts | 76° |
| 2026-04-28 20:29 | 51.83223 | -8.21897 | 4919 ft | 104 kts | 78° |
| 2026-04-28 20:29 | 51.83302 | -8.21141 | 4924 ft | 103 kts | 78° |
| 2026-04-28 20:30 | 51.83473 | -8.20015 | 4917 ft | 101 kts | 76° |
| 2026-04-28 20:30 | 51.83625 | -8.18906 | 4927 ft | 102 kts | 78° |
| 2026-04-28 20:30 | 51.83757 | -8.17408 | 4945 ft | 101 kts | 82° |
| 2026-04-28 20:30 | 51.83824 | -8.16653 | 4972 ft | 100 kts | 77° |
| 2026-04-28 20:31 | 51.83953 | -8.15547 | 4936 ft | 102 kts | 82° |
| 2026-04-28 20:31 | 51.84002 | -8.14402 | 4964 ft | 100 kts | 84° |
| 2026-04-28 20:31 | 51.84065 | -8.13299 | 4939 ft | 103 kts | 83° |
| 2026-04-28 20:31 | 51.84128 | -8.12148 | 4953 ft | 101 kts | 83° |
| 2026-04-28 20:32 | 51.84243 | -8.11044 | 4970 ft | 100 kts | 76° |
| 2026-04-28 20:32 | 51.84455 | -8.09961 | 4928 ft | 101 kts | 73° |
| 2026-04-28 20:32 | 51.84701 | -8.08896 | 4946 ft | 100 kts | 70° |
| 2026-04-28 20:32 | 51.84926 | -8.07829 | 4899 ft | 103 kts | 77° |
| 2026-04-28 20:33 | 51.85091 | -8.06705 | 4947 ft | 101 kts | 76° |
| 2026-04-28 20:33 | 51.85238 | -8.05592 | 4927 ft | 102 kts | 79° |
| 2026-04-28 20:33 | 51.85348 | -8.04458 | 4948 ft | 102 kts | 85° |
| 2026-04-28 20:33 | 51.85334 | -8.03330 | 4986 ft | 100 kts | 93° |
| 2026-04-28 20:34 | 51.85236 | -8.02200 | 4965 ft | 102 kts | 92° |
| 2026-04-28 20:34 | 51.85453 | -8.01169 | 4956 ft | 108 kts | 47° |
| 2026-04-28 20:34 | 51.86214 | -8.00799 | 4945 ft | 123 kts | 4° |
| 2026-04-28 20:34 | 51.87065 | -8.01249 | 4824 ft | 133 kts | 343° |
| 2026-04-28 20:35 | 51.87886 | -8.01809 | 4714 ft | 128 kts | 351° |
| 2026-04-28 20:35 | 51.88724 | -8.02303 | 4574 ft | 128 kts | 351° |
| 2026-04-28 20:35 | 51.89554 | -8.02758 | 4483 ft | 125 kts | 353° |
| 2026-04-28 20:35 | 51.90390 | -8.03204 | 4320 ft | 128 kts | 350° |
| 2026-04-28 20:36 | 51.91224 | -8.03727 | 4173 ft | 128 kts | 351° |
| 2026-04-28 20:36 | 51.92055 | -8.04231 | 4033 ft | 128 kts | 349° |
| 2026-04-28 20:36 | 51.92901 | -8.04740 | 3964 ft | 130 kts | 353° |
| 2026-04-28 20:36 | 51.93768 | -8.04992 | 3975 ft | 125 kts | 7° |
| 2026-04-28 20:37 | 51.94605 | -8.04904 | 3946 ft | 119 kts | 21° |
| 2026-04-28 20:37 | 51.95126 | -8.04692 | 4019 ft | 112 kts | 25° |